Time;durP1;ratioP1;P1;durP2;ratioP2;P2;SDS_P1;SDS_P2;PMS_P1;PMS_P2;Temp;Humidity;BMP_temperature;BMP_pressure;BME280_temperature;BME280_humidity;BME280_pressure;Samples;Min_cycle;Max_cycle;Signal;HPM_P1;HPM_P2
2021/12/08 00:00:43;;;;;;;0.00;0.00;;;4.60;75.50;;;;;;3930458;30;20503;-64
2021/12/08 00:03:09;;;;;;;0.00;0.00;;;4.60;75.80;;;;;;3930667;30;20048;-65
2021/12/08 00:05:32;;;;;;;0.00;0.00;;;4.70;75.90;;;;;;3930838;30;20072;-65
2021/12/08 00:07:58;;;;;;;0.00;0.00;;;4.70;75.80;;;;;;3918357;30;20482;-64
2021/12/08 00:13:03;;;;;;;0.00;0.00;;;4.70;76.00;;;;;;3930740;30;20048;-64
2021/12/08 00:15:26;;;;;;;0.00;0.00;;;4.80;75.80;;;;;;3930577;30;20059;-63
2021/12/08 00:17:48;;;;;;;0.00;0.00;;;4.90;75.70;;;;;;3930549;30;20056;-65
2021/12/08 00:20:11;;;;;;;0.00;0.00;;;4.80;75.70;;;;;;3930476;30;20087;-64
2021/12/08 00:22:33;;;;;;;0.00;0.00;;;4.80;75.80;;;;;;3929901;30;20372;-64
2021/12/08 00:24:55;;;;;;;0.00;0.00;;;4.80;76.10;;;;;;3930355;30;20200;-64
2021/12/08 00:27:18;;;;;;;0.00;0.00;;;4.70;77.20;;;;;;3930389;30;20048;-64
2021/12/08 00:29:40;;;;;;;0.00;0.00;;;4.60;77.10;;;;;;3918299;30;20125;-64
2021/12/08 00:32:06;;;;;;;0.00;0.00;;;4.60;77.20;;;;;;3918873;30;20079;-65
2021/12/08 00:34:30;;;;;;;0.00;0.00;;;4.60;77.60;;;;;;3915325;30;20163;-63
2021/12/08 00:36:57;;;;;;;0.00;0.00;;;4.50;77.80;;;;;;3915899;30;20049;-63
2021/12/08 00:39:19;;;;;;;0.00;0.00;;;4.60;77.90;;;;;;3915737;30;20044;-63
2021/12/08 00:41:42;;;;;;;0.00;0.00;;;4.80;77.90;;;;;;3903628;30;20052;-64
2021/12/08 00:44:05;;;;;;;0.00;0.00;;;4.90;77.70;;;;;;3928028;30;20060;-63
2021/12/08 00:46:27;;;;;;;0.00;0.00;;;5.00;77.50;;;;;;3915363;30;20569;-64
2021/12/08 00:48:51;;;;;;;0.00;0.00;;;5.10;77.30;;;;;;3915609;30;20132;-64
2021/12/08 00:51:13;;;;;;;0.00;0.00;;;5.10;77.20;;;;;;3915461;30;20064;-64
2021/12/08 00:53:36;;;;;;;0.00;0.00;;;5.10;76.60;;;;;;3915521;30;20416;-63
2021/12/08 00:55:59;;;;;;;0.00;0.00;;;5.10;75.90;;;;;;3915492;30;20060;-63
2021/12/08 00:58:21;;;;;;;0.00;0.00;;;5.10;75.40;;;;;;3915151;30;20088;-64
2021/12/08 01:00:51;;;;;;;0.00;0.00;;;5.10;75.20;;;;;;3915350;30;20522;-63
2021/12/08 01:03:16;;;;;;;0.00;0.00;;;5.20;75.10;;;;;;3915546;30;20128;-63
2021/12/08 01:05:48;;;;;;;0.00;0.00;;;5.20;75.00;;;;;;3915491;30;20048;-63
2021/12/08 01:08:11;;;;;;;0.00;0.00;;;5.20;74.60;;;;;;3914572;30;20061;-63
2021/12/08 01:10:35;;;;;;;0.00;0.00;;;5.30;74.30;;;;;;3914897;30;20068;-63
2021/12/08 01:12:57;;;;;;;0.00;0.00;;;5.20;73.90;;;;;;3915024;30;20057;-63
2021/12/08 01:15:22;;;;;;;0.00;0.00;;;5.20;74.30;;;;;;3915372;30;20401;-64
2021/12/08 01:17:45;;;;;;;0.00;0.00;;;5.20;74.60;;;;;;3915181;30;20114;-62
2021/12/08 01:20:12;;;;;;;0.00;0.00;;;5.20;75.10;;;;;;3927498;30;20109;-63
2021/12/08 01:22:34;;;;;;;0.00;0.00;;;5.20;75.30;;;;;;3914672;30;20061;-63
2021/12/08 01:24:57;;;;;;;0.00;0.00;;;5.30;75.10;;;;;;3915322;30;20415;-63
2021/12/08 01:27:19;;;;;;;0.00;0.00;;;5.30;74.70;;;;;;3915427;30;20156;-63
2021/12/08 01:29:41;;;;;;;0.00;0.00;;;5.30;74.70;;;;;;3915220;30;20057;-63
2021/12/08 01:32:07;;;;;;;0.00;0.00;;;5.20;74.70;;;;;;3920666;30;20067;-64
2021/12/08 01:34:29;;;;;;;0.00;0.00;;;5.20;74.50;;;;;;3914818;30;20146;-64
2021/12/08 01:36:52;;;;;;;0.00;0.00;;;5.10;74.50;;;;;;3915279;30;20049;-64
2021/12/08 01:39:14;;;;;;;0.00;0.00;;;5.00;74.60;;;;;;3915057;30;20052;-63
2021/12/08 01:41:36;;;;;;;0.00;0.00;;;5.10;74.40;;;;;;3914920;30;20091;-64
2021/12/08 01:46:40;;;;;;;0.00;0.00;;;5.00;73.80;;;;;;3914724;30;20056;-64
2021/12/08 01:49:04;;;;;;;0.00;0.00;;;5.10;73.70;;;;;;3915199;30;20048;-64
2021/12/08 01:51:27;;;;;;;0.00;0.00;;;5.20;73.80;;;;;;3915025;30;20064;-64
2021/12/08 01:53:52;;;;;;;0.00;0.00;;;5.20;73.80;;;;;;3914903;30;20064;-64
2021/12/08 01:56:15;;;;;;;0.00;0.00;;;5.10;74.00;;;;;;3914715;30;20562;-64
2021/12/08 01:58:38;;;;;;;0.00;0.00;;;5.20;74.60;;;;;;3915039;30;20044;-63
2021/12/08 02:01:09;;;;;;;0.00;0.00;;;5.30;74.90;;;;;;3927001;30;20060;-64
2021/12/08 02:03:33;;;;;;;0.00;0.00;;;5.30;75.10;;;;;;3914825;30;20052;-64
2021/12/08 02:05:56;;;;;;;0.00;0.00;;;5.40;75.10;;;;;;3927186;30;20489;-64
2021/12/08 02:08:18;;;;;;;0.00;0.00;;;5.40;75.10;;;;;;3914540;30;20056;-64
2021/12/08 02:10:41;;;;;;;0.00;0.00;;;5.40;75.30;;;;;;3914767;30;20491;-64
2021/12/08 02:13:05;;;;;;;0.00;0.00;;;5.30;75.60;;;;;;3914956;30;20140;-64
2021/12/08 02:15:27;;;;;;;0.00;0.00;;;5.30;75.90;;;;;;3914964;30;20118;-64
2021/12/08 02:17:56;;;;;;;0.00;0.00;;;5.40;75.90;;;;;;3915016;30;20080;-63
2021/12/08 02:20:20;;;;;;;0.00;0.00;;;5.50;76.00;;;;;;3917513;30;20123;-64
2021/12/08 02:22:42;;;;;;;0.00;0.00;;;5.50;76.00;;;;;;3917771;30;20052;-63
2021/12/08 02:25:08;;;;;;;0.00;0.00;;;5.60;76.40;;;;;;3917653;30;20107;-64
2021/12/08 02:27:33;;;;;;;0.00;0.00;;;5.60;76.70;;;;;;3917450;30;20057;-64
2021/12/08 02:30:02;;;;;;;0.00;0.00;;;5.70;77.00;;;;;;3917541;30;20068;-64
2021/12/08 02:48:31;;;;;;;0.00;0.00;;;5.00;80.10;;;;;;3931506;30;20408;-64
2021/12/08 02:50:54;;;;;;;0.00;0.00;;;5.00;80.20;;;;;;3931722;30;20446;-63
2021/12/08 02:53:17;;;;;;;0.00;0.00;;;5.10;79.90;;;;;;3931737;30;20522;-63
2021/12/08 02:55:41;;;;;;;0.00;0.00;;;5.20;79.80;;;;;;3931785;30;20609;-64
2021/12/08 02:58:04;;;;;;;0.00;0.00;;;5.30;79.60;;;;;;3931743;30;20644;-64
2021/12/08 03:00:29;;;;;;;0.00;0.00;;;5.30;79.60;;;;;;3931392;30;20060;-64
2021/12/08 03:02:55;;;;;;;0.00;0.00;;;5.30;79.20;;;;;;3937894;30;20047;-62
2021/12/08 03:05:18;;;;;;;0.00;0.00;;;5.30;78.70;;;;;;3946225;30;20100;-64
2021/12/08 03:07:40;;;;;;;0.00;0.00;;;5.30;78.10;;;;;;3946174;30;20052;-64
2021/12/08 03:10:13;;;;;;;0.00;0.00;;;5.40;78.80;;;;;;3946152;30;20138;-62
2021/12/08 03:12:37;;;;;;;0.00;0.00;;;5.40;79.30;;;;;;3945605;30;20047;-64
2021/12/08 03:14:59;;;;;;;0.00;0.00;;;5.50;79.50;;;;;;3946137;30;20134;-63
2021/12/08 03:17:22;;;;;;;0.00;0.00;;;5.50;79.70;;;;;;3958766;30;20395;-63
2021/12/08 03:19:46;;;;;;;0.00;0.00;;;5.50;80.10;;;;;;3946174;30;20079;-63
2021/12/08 03:22:10;;;;;;;0.00;0.00;;;5.50;80.70;;;;;;3937060;30;20056;-63
2021/12/08 03:24:36;;;;;;;0.00;0.00;;;5.50;80.90;;;;;;3930904;30;20063;-64
2021/12/08 03:32:13;;;;;;;0.00;0.00;;;5.50;81.50;;;;;;3924370;30;20052;-63
2021/12/08 03:34:41;;;;;;;0.00;0.00;;;5.50;81.60;;;;;;3916078;30;20456;-64
2021/12/08 03:37:06;;;;;;;0.00;0.00;;;5.50;81.70;;;;;;3916647;30;20099;-63
2021/12/08 03:39:28;;;;;;;0.00;0.00;;;5.50;81.90;;;;;;3916425;30;20079;-64
2021/12/08 03:41:51;;;;;;;0.00;0.00;;;5.50;82.10;;;;;;3928540;30;20450;-64
2021/12/08 03:44:14;;;;;;;0.00;0.00;;;5.50;82.30;;;;;;3916067;30;20053;-64
2021/12/08 03:46:40;;;;;;;0.00;0.00;;;5.50;82.50;;;;;;3916253;30;20052;-64
2021/12/08 03:49:06;;;;;;;0.00;0.00;;;5.50;82.70;;;;;;3926880;30;20052;-64
2021/12/08 03:51:28;;;;;;;0.00;0.00;;;5.50;83.20;;;;;;3930818;30;20052;-64
2021/12/08 03:53:51;;;;;;;0.00;0.00;;;5.40;83.40;;;;;;3930689;30;20052;-64
2021/12/08 03:56:13;;;;;;;0.00;0.00;;;5.50;83.40;;;;;;3930603;30;20139;-64
2021/12/08 03:58:36;;;;;;;0.00;0.00;;;5.50;83.40;;;;;;3924867;30;20108;-64
2021/12/08 04:01:00;;;;;;;0.00;0.00;;;5.60;83.50;;;;;;3915923;30;20063;-63
2021/12/08 04:03:26;;;;;;;0.00;0.00;;;5.50;84.20;;;;;;3916340;30;20519;-65
2021/12/08 04:08:20;;;;;;;0.00;0.00;;;5.60;84.20;;;;;;3915705;30;20494;-64
2021/12/08 04:10:48;;;;;;;0.00;0.00;;;5.60;84.30;;;;;;3916076;30;20143;-62
2021/12/08 04:13:11;;;;;;;0.00;0.00;;;5.60;84.70;;;;;;3916029;30;20053;-64
2021/12/08 04:15:33;;;;;;;0.00;0.00;;;5.60;84.90;;;;;;3916003;30;20071;-63
2021/12/08 04:17:56;;;;;;;0.00;0.00;;;5.70;84.80;;;;;;3916026;30;20075;-64
2021/12/08 04:20:28;;;;;;;0.00;0.00;;;5.70;85.10;;;;;;3915555;30;20063;-62
2021/12/08 04:22:53;;;;;;;0.00;0.00;;;5.70;85.20;;;;;;3915842;30;20055;-63
2021/12/08 04:25:20;;;;;;;0.00;0.00;;;5.70;85.10;;;;;;3915938;30;20151;-64
2021/12/08 04:27:44;;;;;;;0.00;0.00;;;5.70;85.10;;;;;;3915828;30;20490;-64
2021/12/08 04:30:11;;;;;;;0.00;0.00;;;5.60;85.30;;;;;;3915722;30;20581;-64
2021/12/08 04:32:35;;;;;;;0.00;0.00;;;5.70;85.30;;;;;;3929265;30;20066;-64
2021/12/08 04:35:00;;;;;;;0.00;0.00;;;5.70;85.30;;;;;;3930052;30;20253;-63
2021/12/08 04:37:30;;;;;;;0.00;0.00;;;5.70;85.30;;;;;;3930288;30;20072;-63
2021/12/08 04:40:20;;;;;;;0.00;0.00;;;5.60;85.80;;;;;;3930551;30;20151;-63
2021/12/08 04:45:32;;;;;;;0.00;0.00;;;5.60;86.00;;;;;;3930194;30;20058;-63
2021/12/08 04:48:14;;;;;;;0.00;0.00;;;5.60;86.20;;;;;;3917753;30;20484;-63
2021/12/08 05:07:13;;;;;;;0.00;0.00;;;5.50;86.20;;;;;;3915027;30;20049;-63
2021/12/08 05:09:36;;;;;;;0.00;0.00;;;5.40;86.00;;;;;;3915510;30;20060;-63
2021/12/08 05:12:13;;;;;;;0.00;0.00;;;5.30;86.30;;;;;;3915174;30;20080;-63
2021/12/08 05:14:46;;;;;;;0.00;0.00;;;5.30;86.70;;;;;;3914885;30;20492;-62
2021/12/08 05:17:15;;;;;;;0.00;0.00;;;5.20;87.20;;;;;;3915556;30;20502;-62
2021/12/08 05:19:41;;;;;;;0.00;0.00;;;5.20;87.10;;;;;;3903302;30;20516;-62
2021/12/08 05:22:15;;;;;;;0.00;0.00;;;5.30;87.00;;;;;;3914933;30;20147;-62
2021/12/08 05:24:43;;;;;;;0.00;0.00;;;5.30;87.30;;;;;;3927114;30;20052;-64
2021/12/08 05:27:15;;;;;;;0.00;0.00;;;5.20;88.00;;;;;;3915468;30;20083;-62
2021/12/08 05:29:58;;;;;;;0.00;0.00;;;5.10;88.60;;;;;;3915354;30;20147;-63
2021/12/08 05:32:21;;;;;;;0.00;0.00;;;5.10;88.80;;;;;;3914730;30;20155;-62
2021/12/08 05:34:43;;;;;;;0.00;0.00;;;5.00;89.50;;;;;;3915067;30;20131;-62
2021/12/08 05:37:08;;;;;;;0.00;0.00;;;5.00;90.00;;;;;;3927505;30;20143;-62
2021/12/08 05:39:32;;;;;;;0.00;0.00;;;4.90;90.40;;;;;;3927375;30;20062;-62
2021/12/08 05:41:59;;;;;;;0.00;0.00;;;5.00;90.40;;;;;;3915057;30;20056;-63
2021/12/08 05:44:22;;;;;;;0.00;0.00;;;5.10;90.20;;;;;;3914779;30;20056;-62
2021/12/08 05:46:48;;;;;;;0.00;0.00;;;5.10;90.10;;;;;;3915193;30;20080;-63
2021/12/08 05:49:13;;;;;;;0.00;0.00;;;5.10;90.00;;;;;;3903086;30;20049;-62
2021/12/08 05:51:36;;;;;;;0.00;0.00;;;5.20;90.00;;;;;;3914807;30;20060;-62
2021/12/08 05:54:03;;;;;;;0.00;0.00;;;5.00;90.20;;;;;;3916322;30;20435;-63
2021/12/08 05:56:27;;;;;;;0.00;0.00;;;5.10;90.20;;;;;;3917683;30;20064;-61
2021/12/08 05:58:52;;;;;;;0.00;0.00;;;5.10;90.20;;;;;;3918192;30;20061;-63
2021/12/08 06:01:34;;;;;;;0.00;0.00;;;5.20;90.50;;;;;;3917706;30;20110;-62
2021/12/08 06:03:57;;;;;;;0.00;0.00;;;5.20;90.30;;;;;;3917925;30;20057;-62
2021/12/08 06:06:22;;;;;;;0.00;0.00;;;5.20;90.20;;;;;;3917418;30;20060;-62
2021/12/08 06:08:44;;;;;;;0.00;0.00;;;5.20;90.30;;;;;;3917992;30;20046;-61
2021/12/08 06:11:09;;;;;;;0.00;0.00;;;5.30;90.30;;;;;;3917536;30;20056;-64
2021/12/08 06:13:31;;;;;;;0.00;0.00;;;5.30;90.40;;;;;;3918002;30;20049;-62
2021/12/08 06:15:55;;;;;;;0.00;0.00;;;5.30;90.50;;;;;;3917828;30;20084;-62
2021/12/08 06:18:22;;;;;;;0.00;0.00;;;5.20;90.90;;;;;;3917290;30;20068;-64
2021/12/08 06:20:45;;;;;;;0.00;0.00;;;5.20;90.80;;;;;;3917561;30;20049;-63
2021/12/08 06:23:09;;;;;;;0.00;0.00;;;5.20;90.90;;;;;;3917610;30;20049;-63
2021/12/08 06:25:31;;;;;;;0.00;0.00;;;5.20;90.90;;;;;;3917725;30;20411;-64
2021/12/08 06:27:55;;;;;;;0.00;0.00;;;5.30;90.80;;;;;;3917517;30;20475;-63
2021/12/08 06:30:21;;;;;;;0.00;0.00;;;5.30;90.80;;;;;;3917257;30;20133;-63
2021/12/08 06:32:45;;;;;;;0.00;0.00;;;5.20;91.00;;;;;;3917523;30;20531;-63
2021/12/08 06:35:12;;;;;;;0.00;0.00;;;5.10;91.20;;;;;;3917321;30;20049;-64
2021/12/08 06:37:39;;;;;;;0.00;0.00;;;5.10;91.50;;;;;;3917298;30;20092;-63
2021/12/08 06:40:04;;;;;;;0.00;0.00;;;5.10;91.50;;;;;;3905176;30;20104;-64
2021/12/08 06:42:31;;;;;;;0.00;0.00;;;5.10;91.40;;;;;;3916699;30;20147;-63
2021/12/08 06:44:54;;;;;;;0.00;0.00;;;5.00;91.60;;;;;;3917420;30;20118;-63
2021/12/08 06:47:20;;;;;;;0.00;0.00;;;4.90;92.00;;;;;;3917277;30;20434;-63
2021/12/08 06:49:45;;;;;;;0.00;0.00;;;4.70;92.50;;;;;;3917135;30;20057;-64
2021/12/08 06:52:13;;;;;;;0.00;0.00;;;4.50;92.90;;;;;;3929016;30;20091;-62
2021/12/08 06:54:40;;;;;;;0.00;0.00;;;4.50;93.20;;;;;;3916726;30;20072;-64
2021/12/08 06:57:18;;;;;;;0.00;0.00;;;4.40;93.40;;;;;;3917167;30;20084;-64
2021/12/08 06:59:53;;;;;;;0.00;0.00;;;4.50;93.40;;;;;;3917006;30;20064;-63
2021/12/08 07:02:36;;;;;;;0.00;0.00;;;4.60;93.20;;;;;;3927800;30;20083;-64
2021/12/08 07:05:12;;;;;;;0.00;0.00;;;4.70;93.20;;;;;;3918478;30;20048;-64
2021/12/08 07:07:37;;;;;;;0.00;0.00;;;4.80;93.10;;;;;;3931359;30;20114;-63
2021/12/08 07:10:05;;;;;;;0.00;0.00;;;4.90;92.90;;;;;;3931568;30;20053;-64
2021/12/08 07:12:42;;;;;;;0.00;0.00;;;5.00;92.80;;;;;;3931117;30;20057;-62
2021/12/08 07:15:19;;;;;;;0.00;0.00;;;5.00;92.70;;;;;;3931386;30;20135;-63
2021/12/08 07:17:46;;;;;;;0.00;0.00;;;5.00;92.90;;;;;;3931395;30;20125;-64
2021/12/08 07:20:28;;;;;;;0.00;0.00;;;5.10;92.70;;;;;;3919219;30;20062;-62
2021/12/08 07:22:52;;;;;;;0.00;0.00;;;5.10;92.60;;;;;;3930814;30;20062;-62
2021/12/08 07:25:17;;;;;;;0.00;0.00;;;4.90;93.00;;;;;;3931362;30;20114;-63
2021/12/08 07:27:41;;;;;;;0.00;0.00;;;4.90;93.10;;;;;;3931151;30;20064;-62
2021/12/08 07:30:10;;;;;;;0.00;0.00;;;4.90;93.10;;;;;;3931271;30;20058;-62
2021/12/08 07:32:36;;;;;;;0.00;0.00;;;4.80;93.30;;;;;;3906993;30;20512;-62
2021/12/08 07:35:04;;;;;;;0.00;0.00;;;4.70;93.60;;;;;;3931097;30;20044;-62
2021/12/08 07:37:31;;;;;;;0.00;0.00;;;4.60;93.90;;;;;;3931215;30;20151;-65
2021/12/08 07:40:07;;;;;;;0.00;0.00;;;4.50;94.10;;;;;;3918975;30;20538;-65
2021/12/08 07:42:36;;;;;;;0.00;0.00;;;4.60;94.20;;;;;;3930551;30;20132;-64
2021/12/08 07:45:04;;;;;;;0.00;0.00;;;4.60;94.20;;;;;;3931202;30;20059;-65
2021/12/08 07:47:28;;;;;;;0.00;0.00;;;4.60;94.10;;;;;;3930862;30;20083;-65
2021/12/08 07:50:06;;;;;;;0.00;0.00;;;4.70;94.00;;;;;;3931021;30;20084;-65
2021/12/08 07:52:36;;;;;;;0.00;0.00;;;4.80;93.90;;;;;;3930267;30;20080;-65
2021/12/08 07:54:59;;;;;;;0.00;0.00;;;4.60;93.70;;;;;;3931028;30;20493;-66
2021/12/08 07:57:30;;;;;;;0.00;0.00;;;4.50;93.90;;;;;;3931002;30;20482;-65
2021/12/08 08:00:05;;;;;;;0.00;0.00;;;4.40;94.10;;;;;;3930925;30;20067;-65
2021/12/08 08:02:36;;;;;;;0.00;0.00;;;4.40;94.30;;;;;;3934766;30;20055;-64
2021/12/08 08:05:04;;;;;;;0.00;0.00;;;4.50;94.20;;;;;;3933330;30;20087;-64
2021/12/08 08:07:27;;;;;;;0.00;0.00;;;4.50;94.10;;;;;;3933984;30;20056;-62
2021/12/08 08:09:59;;;;;;;0.00;0.00;;;4.60;93.80;;;;;;3945433;30;20465;-60
2021/12/08 08:12:22;;;;;;;0.00;0.00;;;4.70;93.70;;;;;;3944717;30;20087;-58
2021/12/08 08:14:55;;;;;;;0.00;0.00;;;4.80;93.60;;;;;;3929520;30;20052;-61
2021/12/08 08:17:25;;;;;;;0.00;0.00;;;4.90;93.40;;;;;;3930149;30;20572;-63
2021/12/08 08:19:48;;;;;;;0.00;0.00;;;4.80;93.10;;;;;;3930564;30;20135;-64
2021/12/08 08:22:15;;;;;;;0.00;0.00;;;4.80;93.10;;;;;;3930085;30;20392;-63
2021/12/08 08:24:37;;;;;;;0.00;0.00;;;4.70;93.20;;;;;;3942471;30;20818;-58
2021/12/08 08:27:03;;;;;;;0.00;0.00;;;4.70;93.10;;;;;;3930564;30;20131;-59
2021/12/08 08:29:26;;;;;;;0.00;0.00;;;4.60;93.10;;;;;;3930512;30;20461;-63
2021/12/08 08:31:59;;;;;;;0.00;0.00;;;4.50;93.20;;;;;;3929418;30;20139;-58
2021/12/08 08:34:22;;;;;;;0.00;0.00;;;4.40;93.30;;;;;;3929705;30;20118;-58
2021/12/08 08:36:47;;;;;;;0.00;0.00;;;4.30;93.30;;;;;;3930478;30;20044;-59
2021/12/08 08:39:20;;;;;;;0.00;0.00;;;4.30;93.40;;;;;;3930193;30;20131;-58
2021/12/08 08:41:59;;;;;;;0.00;0.00;;;4.40;93.30;;;;;;3917734;30;20101;-59
2021/12/08 08:44:31;;;;;;;0.00;0.00;;;4.40;93.10;;;;;;3929981;30;20092;-58
2021/12/08 08:46:55;;;;;;;0.00;0.00;;;4.30;93.40;;;;;;3930275;30;20055;-58
2021/12/08 08:49:28;;;;;;;0.00;0.00;;;4.30;93.10;;;;;;3930256;30;20135;-58
2021/12/08 08:52:11;;;;;;;0.00;0.00;;;4.20;93.10;;;;;;3929813;30;20523;-59
2021/12/08 08:54:43;;;;;;;0.00;0.00;;;4.00;93.50;;;;;;3942126;30;20056;-60
2021/12/08 08:57:11;;;;;;;0.00;0.00;;;4.00;93.50;;;;;;3930149;30;20048;-58
2021/12/08 08:59:40;;;;;;;0.00;0.00;;;4.00;93.40;;;;;;3929885;30;20072;-59
2021/12/08 09:02:08;;;;;;;0.00;0.00;;;3.90;93.50;;;;;;3929650;30;20483;-58
2021/12/08 09:04:36;;;;;;;0.00;0.00;;;3.80;93.70;;;;;;3917374;30;20543;-63
2021/12/08 09:07:06;;;;;;;0.00;0.00;;;3.60;94.00;;;;;;3917542;30;20089;-63
2021/12/08 09:09:34;;;;;;;0.00;0.00;;;3.70;94.10;;;;;;3929752;30;20055;-59
2021/12/08 09:12:19;;;;;;;0.00;0.00;;;3.90;94.00;;;;;;3929631;30;20052;-59
2021/12/08 09:15:09;;;;;;;0.00;0.00;;;3.90;93.70;;;;;;3929489;30;20048;-61
2021/12/08 09:17:39;;;;;;;0.00;0.00;;;3.80;93.90;;;;;;3930191;30;20056;-59
2021/12/08 09:20:26;;;;;;;0.00;0.00;;;3.80;94.00;;;;;;3927009;30;20048;-59
2021/12/08 09:23:02;;;;;;;0.00;0.00;;;4.00;93.90;;;;;;3928049;30;20051;-60
2021/12/08 09:25:35;;;;;;;0.00;0.00;;;4.10;93.60;;;;;;3928954;30;20065;-59
2021/12/08 09:28:17;;;;;;;0.00;0.00;;;4.00;93.40;;;;;;3929535;30;20066;-59
2021/12/08 09:30:51;;;;;;;0.00;0.00;;;3.80;93.50;;;;;;3929280;30;20052;-60
2021/12/08 09:33:18;;;;;;;0.00;0.00;;;3.80;93.80;;;;;;3930130;30;20056;-59
2021/12/08 09:35:48;;;;;;;0.00;0.00;;;4.00;93.60;;;;;;3932001;30;20074;-59
2021/12/08 09:38:18;;;;;;;0.00;0.00;;;4.00;93.50;;;;;;3932187;30;20059;-59
2021/12/08 09:40:49;;;;;;;0.00;0.00;;;3.90;93.50;;;;;;3919666;30;20060;-58
2021/12/08 09:43:16;;;;;;;;;;;3.90;93.70;;;;;;3932320;30;20150;-59
2021/12/08 09:45:59;;;;;;;0.00;0.00;;;3.80;93.70;;;;;;3932311;30;19927;-59
2021/12/08 09:48:27;;;;;;;0.00;0.00;;;3.70;94.00;;;;;;3931470;30;20559;-59
2021/12/08 09:50:49;;;;;;;0.00;0.00;;;3.70;94.40;;;;;;3931761;30;20048;-61
2021/12/08 09:53:12;;;;;;;0.00;0.00;;;3.60;94.10;;;;;;3931762;30;20048;-60
2021/12/08 09:55:36;;;;;;;0.00;0.00;;;3.60;94.30;;;;;;3932047;30;20564;-60
2021/12/08 09:57:59;;;;;;;0.00;0.00;;;3.70;94.30;;;;;;3932291;30;20131;-59
2021/12/08 10:00:29;;;;;;;0.00;0.00;;;3.60;94.30;;;;;;3931735;30;20062;-59
2021/12/08 10:02:58;;;;;;;0.00;0.00;;;3.70;94.40;;;;;;3931963;30;20424;-59
2021/12/08 10:05:21;;;;;;;0.00;0.00;;;3.60;94.40;;;;;;3932091;30;20102;-60
2021/12/08 10:07:44;;;;;;;0.00;0.00;;;3.50;94.60;;;;;;3932347;30;20499;-60
2021/12/08 10:10:11;;;;;;;0.00;0.00;;;3.40;94.80;;;;;;3920002;30;20049;-63
2021/12/08 10:12:35;;;;;;;0.00;0.00;;;3.40;95.00;;;;;;3931176;30;20532;-63
2021/12/08 10:14:57;;;;;;;0.00;0.00;;;3.30;95.10;;;;;;3931965;30;20063;-62
2021/12/08 10:17:20;;;;;;;0.00;0.00;;;3.30;95.20;;;;;;3931951;30;20556;-60
2021/12/08 10:19:44;;;;;;;0.00;0.00;;;3.30;95.20;;;;;;3932032;30;20072;-59
2021/12/08 10:22:20;;;;;;;0.00;0.00;;;3.30;95.30;;;;;;3931492;30;20079;-60
2021/12/08 10:25:07;;;;;;;0.00;0.00;;;3.50;95.00;;;;;;3931418;30;20044;-59
2021/12/08 10:27:30;;;;;;;0.00;0.00;;;3.60;95.10;;;;;;3931954;30;20052;-61
2021/12/08 10:29:52;;;;;;;0.00;0.00;;;3.60;94.70;;;;;;3931831;30;20574;-60
2021/12/08 10:32:15;;;;;;;0.00;0.00;;;3.70;94.60;;;;;;3931433;30;20063;-65
2021/12/08 10:34:52;;;;;;;0.00;0.00;;;3.70;94.50;;;;;;3919451;30;20048;-61
2021/12/08 10:37:18;;;;;;;0.00;0.00;;;3.70;94.30;;;;;;3932277;30;20523;-62
2021/12/08 10:39:47;;;;;;;0.00;0.00;;;3.70;94.50;;;;;;3932809;30;20063;-61
2021/12/08 10:42:22;;;;;;;0.00;0.00;;;3.80;94.40;;;;;;3934059;30;20052;-63
2021/12/08 10:44:48;;;;;;;0.00;0.00;;;3.80;94.40;;;;;;3933220;30;20059;-63
2021/12/08 10:47:36;;;;;;;0.00;0.00;;;3.90;94.30;;;;;;3934400;30;20048;-62
2021/12/08 10:55:23;;;;;;;0.00;0.00;;;3.70;94.10;;;;;;3934401;30;20515;-64
2021/12/08 10:57:49;;;;;;;0.00;0.00;;;3.60;94.10;;;;;;3934169;30;20096;-64
2021/12/08 11:00:37;;;;;;;0.00;0.00;;;3.50;94.10;;;;;;3933688;30;20503;-63
2021/12/08 11:03:06;;;;;;;0.00;0.00;;;3.50;94.40;;;;;;3932205;30;20056;-62
2021/12/08 11:05:37;;;;;;;0.00;0.00;;;3.40;94.40;;;;;;3931830;30;20594;-63
2021/12/08 11:08:17;;;;;;;0.00;0.00;;;3.50;94.50;;;;;;3931818;30;20048;-61
2021/12/08 11:10:47;;;;;;;0.00;0.00;;;3.70;94.50;;;;;;3931147;30;20090;-59
2021/12/08 11:13:12;;;;;;;0.00;0.00;;;3.70;94.20;;;;;;3919235;30;20479;-59
2021/12/08 11:15:37;;;;;;;0.00;0.00;;;3.60;94.00;;;;;;3919505;30;20059;-58
2021/12/08 11:18:21;;;;;;;0.00;0.00;;;3.70;94.20;;;;;;3931729;30;20076;-59
2021/12/08 11:20:54;;;;;;;0.00;0.00;;;3.70;94.20;;;;;;3931000;30;20422;-59
2021/12/08 11:26:29;;;;;;;0.00;0.00;;;3.80;94.40;;;;;;3931381;30;20063;-59
2021/12/08 11:28:52;;;;;;;0.00;0.00;;;3.90;93.80;;;;;;3931043;30;20541;-58
2021/12/08 11:31:16;;;;;;;0.00;0.00;;;3.80;93.70;;;;;;3931146;30;20333;-58
2021/12/08 11:33:48;;;;;;;0.00;0.00;;;3.70;93.90;;;;;;3930881;30;20446;-55
2021/12/08 11:36:25;;;;;;;0.00;0.00;;;3.80;94.00;;;;;;3931276;30;20052;-59
2021/12/08 11:38:49;;;;;;;0.00;0.00;;;3.90;93.90;;;;;;3918770;30;20049;-59
2021/12/08 11:41:36;;;;;;;0.00;0.00;;;4.00;93.90;;;;;;3930929;30;20446;-62
2021/12/08 11:44:00;;;;;;;0.00;0.00;;;4.10;93.70;;;;;;3931137;30;20465;-59
2021/12/08 11:46:24;;;;;;;0.00;0.00;;;4.10;93.60;;;;;;3930825;30;20090;-60
2021/12/08 11:49:03;;;;;;;0.00;0.00;;;4.10;93.40;;;;;;3918778;30;20455;-60
2021/12/08 11:51:27;;;;;;;0.00;0.00;;;4.10;93.50;;;;;;3932949;30;20139;-60
2021/12/08 11:53:50;;;;;;;0.00;0.00;;;4.10;93.40;;;;;;3932538;30;20137;-59
2021/12/08 11:56:35;;;;;;;0.00;0.00;;;4.10;93.40;;;;;;3943832;30;20590;-60
2021/12/08 11:58:58;;;;;;;0.00;0.00;;;4.10;93.30;;;;;;3945355;30;20059;-59
2021/12/08 12:01:21;;;;;;;0.00;0.00;;;4.20;93.20;;;;;;3945007;30;20054;-59
2021/12/08 12:03:45;;;;;;;0.00;0.00;;;4.20;93.10;;;;;;3945483;30;20051;-59
2021/12/08 12:06:27;;;;;;;0.00;0.00;;;4.20;93.10;;;;;;3945393;30;20087;-58
2021/12/08 12:08:50;;;;;;;0.00;0.00;;;4.20;93.10;;;;;;3945592;30;20079;-59
2021/12/08 12:11:13;;;;;;;0.00;0.00;;;4.20;93.20;;;;;;3945231;30;20130;-60
2021/12/08 12:13:36;;;;;;;0.00;0.00;;;4.30;93.20;;;;;;3945370;30;20155;-58
2021/12/08 12:15:59;;;;;;;0.00;0.00;;;4.30;93.30;;;;;;3945268;30;20128;-59
2021/12/08 12:18:23;;;;;;;0.00;0.00;;;4.40;93.00;;;;;;3944935;30;20117;-59
2021/12/08 12:20:51;;;;;;;0.00;0.00;;;4.40;93.00;;;;;;3945133;30;20047;-60
2021/12/08 12:23:35;;;;;;;0.00;0.00;;;4.40;92.90;;;;;;3945322;30;20134;-59
2021/12/08 12:26:04;;;;;;;0.00;0.00;;;4.40;92.90;;;;;;3945075;30;20059;-60
2021/12/08 12:28:29;;;;;;;0.00;0.00;;;4.40;92.70;;;;;;3944815;30;20155;-59
2021/12/08 12:31:19;;;;;;;0.00;0.00;;;4.30;92.90;;;;;;3957620;30;20104;-60
2021/12/08 12:33:44;;;;;;;0.00;0.00;;;4.30;92.80;;;;;;3944913;30;20055;-63
2021/12/08 12:36:18;;;;;;;0.00;0.00;;;4.20;92.90;;;;;;3944890;30;20273;-60
2021/12/08 12:38:41;;;;;;;0.00;0.00;;;4.20;92.90;;;;;;3944745;30;20051;-60
2021/12/08 12:41:24;;;;;;;0.00;0.00;;;4.30;92.80;;;;;;3944725;30;20043;-61
2021/12/08 12:43:49;;;;;;;0.00;0.00;;;4.30;92.80;;;;;;3944968;30;20063;-60
2021/12/08 12:46:15;;;;;;;0.00;0.00;;;4.20;92.80;;;;;;3944737;30;20060;-60
2021/12/08 12:48:38;;;;;;;0.00;0.00;;;4.30;92.90;;;;;;3944415;30;20047;-61
2021/12/08 12:51:07;;;;;;;0.00;0.00;;;4.30;92.90;;;;;;3944790;30;20458;-61
2021/12/08 12:53:56;;;;;;;0.00;0.00;;;4.30;92.90;;;;;;3944606;30;20055;-60
2021/12/08 12:56:34;;;;;;;0.00;0.00;;;4.20;93.00;;;;;;3944267;30;20059;-60
2021/12/08 12:58:57;;;;;;;0.00;0.00;;;4.30;93.00;;;;;;3944906;30;20056;-59
2021/12/08 13:01:38;;;;;;;0.00;0.00;;;4.30;92.70;;;;;;3944529;30;20055;-60
2021/12/08 13:04:15;;;;;;;0.00;0.00;;;4.30;92.90;;;;;;3944745;30;20142;-60
2021/12/08 13:06:45;;;;;;;0.00;0.00;;;4.30;92.70;;;;;;3944226;30;20055;-60
2021/12/08 13:09:10;;;;;;;0.00;0.00;;;4.40;92.70;;;;;;3944856;30;20056;-60
2021/12/08 13:11:52;;;;;;;0.00;0.00;;;4.30;92.70;;;;;;3944471;30;20496;-59
2021/12/08 13:14:23;;;;;;;0.00;0.00;;;4.30;93.00;;;;;;3944492;30;20615;-60
2021/12/08 13:16:45;;;;;;;0.00;0.00;;;4.20;93.00;;;;;;3944269;30;20101;-62
2021/12/08 13:19:08;;;;;;;0.00;0.00;;;4.20;93.10;;;;;;3944582;30;20051;-61
2021/12/08 13:21:42;;;;;;;0.00;0.00;;;4.30;93.10;;;;;;3944269;30;20415;-59
2021/12/08 13:24:25;;;;;;;0.00;0.00;;;4.20;93.00;;;;;;3932247;30;20148;-59
2021/12/08 13:26:48;;;;;;;0.00;0.00;;;4.10;93.20;;;;;;3944130;30;20071;-58
2021/12/08 13:29:20;;;;;;;0.00;0.00;;;4.20;93.20;;;;;;3944585;30;20055;-59
2021/12/08 13:31:59;;;;;;;0.00;0.00;;;4.30;93.20;;;;;;3944079;30;20130;-58
2021/12/08 13:34:24;;;;;;;0.00;0.00;;;4.30;93.00;;;;;;3944146;30;20169;-59
2021/12/08 13:36:47;;;;;;;0.00;0.00;;;4.40;92.90;;;;;;3944333;30;20498;-58
2021/12/08 13:39:14;;;;;;;0.00;0.00;;;4.40;92.90;;;;;;3944539;30;20046;-58
2021/12/08 13:41:39;;;;;;;0.00;0.00;;;4.50;92.90;;;;;;3944017;30;20066;-58
2021/12/08 13:44:23;;;;;;;0.00;0.00;;;4.50;92.80;;;;;;3944510;30;20052;-59
2021/12/08 13:46:56;;;;;;;0.00;0.00;;;4.50;92.80;;;;;;3943790;30;20085;-58
2021/12/08 13:49:28;;;;;;;0.00;0.00;;;4.50;92.60;;;;;;3944396;30;20167;-59
2021/12/08 13:52:09;;;;;;;0.00;0.00;;;4.40;92.70;;;;;;3944152;30;20068;-58
2021/12/08 13:54:36;;;;;;;0.00;0.00;;;4.30;92.90;;;;;;3944128;30;20091;-58
2021/12/08 13:57:02;;;;;;;0.00;0.00;;;4.20;92.90;;;;;;3930692;30;20290;-59